SIA412 WPDL-YPDN
Flight info
| Callsign | SIA412 |
|---|---|
| Flight time | N/A |
| Altitude | 23000 |
| Route | DIL DCT PATBO Z10 ANUPA M768 DN |
| Aircraft | A359/H-SDE2E3GHIJ3J4J5LM1ORWXY/LB1D1 |
Departure
| Time | N/A |
|---|---|
| Airport | Presidente Nicolau Lobato International Airport (WPDL) |
Arrival
| Time | 2026-04-28 17:13 |
|---|---|
| Airport | Darwin International Airport / RAAF Darwin (YPDN) |
| Time | Latitude | Longitude | Altitude | Speed | Heading |
|---|---|---|---|---|---|
| 2026-04-28 16:32 | -10.67808 | 128.78360 | 38452 ft | 516 kts | 128° |
| 2026-04-28 16:32 | -10.74330 | 128.87076 | 38450 ft | 516 kts | 127° |
| 2026-04-28 16:33 | -10.77934 | 128.91896 | 38453 ft | 515 kts | 127° |
| 2026-04-28 16:33 | -10.82971 | 128.98637 | 38452 ft | 516 kts | 127° |
| 2026-04-28 16:34 | -10.87314 | 129.04452 | 38454 ft | 515 kts | 127° |
| 2026-04-28 16:34 | -10.91645 | 129.10254 | 38449 ft | 515 kts | 127° |
| 2026-04-28 16:35 | -10.95977 | 129.16060 | 38452 ft | 515 kts | 127° |
| 2026-04-28 16:35 | -11.00275 | 129.21823 | 38451 ft | 514 kts | 127° |
| 2026-04-28 16:36 | -11.04599 | 129.27625 | 38451 ft | 514 kts | 127° |
| 2026-04-28 16:36 | -11.08921 | 129.33427 | 38451 ft | 514 kts | 128° |
| 2026-04-28 16:37 | -11.13251 | 129.39243 | 38453 ft | 515 kts | 128° |
| 2026-04-28 16:38 | -11.19716 | 129.47933 | 38454 ft | 516 kts | 128° |
| 2026-04-28 16:38 | -11.24046 | 129.53758 | 38451 ft | 516 kts | 127° |
| 2026-04-28 16:39 | -11.28375 | 129.59584 | 38454 ft | 516 kts | 128° |
| 2026-04-28 16:39 | -11.32701 | 129.65409 | 38453 ft | 515 kts | 128° |
| 2026-04-28 16:40 | -11.36994 | 129.71194 | 38451 ft | 515 kts | 127° |
| 2026-04-28 16:40 | -11.41313 | 129.77016 | 38453 ft | 515 kts | 127° |
| 2026-04-28 16:41 | -11.45632 | 129.82843 | 38452 ft | 515 kts | 127° |
| 2026-04-28 16:41 | -11.49947 | 129.88665 | 38451 ft | 514 kts | 127° |
| 2026-04-28 16:42 | -11.54934 | 129.93782 | 38368 ft | 508 kts | 140° |
| 2026-04-28 16:42 | -11.57607 | 129.96101 | 37666 ft | 505 kts | 141° |
| 2026-04-28 16:42 | -11.60297 | 129.98424 | 36896 ft | 506 kts | 141° |
| 2026-04-28 16:42 | -11.62978 | 130.00746 | 36625 ft | 506 kts | 141° |
| 2026-04-28 16:43 | -11.65657 | 130.03074 | 36360 ft | 504 kts | 141° |
| 2026-04-28 16:43 | -11.68318 | 130.05390 | 35652 ft | 503 kts | 140° |
| 2026-04-28 16:43 | -11.70985 | 130.07713 | 34839 ft | 506 kts | 141° |
| 2026-04-28 16:43 | -11.73665 | 130.10048 | 34092 ft | 506 kts | 141° |
| 2026-04-28 16:44 | -11.76340 | 130.12382 | 33350 ft | 505 kts | 141° |
| 2026-04-28 16:44 | -11.78956 | 130.14664 | 32917 ft | 497 kts | 141° |
| 2026-04-28 16:44 | -11.81536 | 130.16918 | 32243 ft | 480 kts | 141° |
| 2026-04-28 16:44 | -11.84047 | 130.19111 | 31273 ft | 472 kts | 141° |
| 2026-04-28 16:45 | -11.86535 | 130.21284 | 30016 ft | 471 kts | 141° |
| 2026-04-28 16:45 | -11.89029 | 130.23461 | 28469 ft | 472 kts | 141° |
| 2026-04-28 16:45 | -11.91527 | 130.25644 | 26995 ft | 472 kts | 141° |
| 2026-04-28 16:45 | -11.94019 | 130.27822 | 25584 ft | 471 kts | 140° |
| 2026-04-28 16:46 | -11.96474 | 130.29966 | 24263 ft | 469 kts | 140° |
| 2026-04-28 16:46 | -11.98947 | 130.32126 | 22869 ft | 466 kts | 140° |
| 2026-04-28 16:46 | -12.01395 | 130.34266 | 21369 ft | 461 kts | 140° |
| 2026-04-28 16:46 | -12.03812 | 130.36381 | 19939 ft | 455 kts | 140° |
| 2026-04-28 16:47 | -12.06196 | 130.38468 | 18640 ft | 447 kts | 140° |
| 2026-04-28 16:47 | -12.08527 | 130.40508 | 17288 ft | 437 kts | 140° |
| 2026-04-28 16:47 | -12.10816 | 130.42515 | 15842 ft | 430 kts | 140° |
| 2026-04-28 16:47 | -12.13066 | 130.44491 | 14451 ft | 424 kts | 140° |
| 2026-04-28 16:48 | -12.15293 | 130.46440 | 13023 ft | 418 kts | 140° |
| 2026-04-28 16:48 | -12.17435 | 130.48314 | 12211 ft | 397 kts | 140° |
| 2026-04-28 16:48 | -12.19445 | 130.50076 | 11948 ft | 365 kts | 140° |
| 2026-04-28 16:48 | -12.21340 | 130.51736 | 11360 ft | 358 kts | 140° |
| 2026-04-28 16:49 | -12.23150 | 130.53519 | 10457 ft | 367 kts | 131° |
| 2026-04-28 16:49 | -12.24738 | 130.55622 | 9215 ft | 382 kts | 126° |
| 2026-04-28 16:49 | -12.26285 | 130.57824 | 8179 ft | 375 kts | 126° |
| 2026-04-28 16:49 | -12.27782 | 130.59958 | 6912 ft | 366 kts | 125° |
| 2026-04-28 16:50 | -12.29254 | 130.62043 | 5680 ft | 356 kts | 125° |
| 2026-04-28 16:50 | -12.30684 | 130.64062 | 4672 ft | 343 kts | 125° |
| 2026-04-28 16:50 | -12.32000 | 130.65915 | 4494 ft | 305 kts | 125° |
| 2026-04-28 16:50 | -12.33160 | 130.67547 | 4497 ft | 264 kts | 125° |
| 2026-04-28 16:51 | -12.34175 | 130.68975 | 4342 ft | 237 kts | 125° |
| 2026-04-28 16:51 | -12.35107 | 130.70287 | 4078 ft | 218 kts | 125° |
| 2026-04-28 16:51 | -12.35864 | 130.71553 | 3863 ft | 206 kts | 115° |
| 2026-04-28 16:51 | -12.36378 | 130.72938 | 3673 ft | 210 kts | 109° |
| 2026-04-28 16:52 | -12.36859 | 130.74349 | 3443 ft | 211 kts | 110° |
| 2026-04-28 16:52 | -12.37337 | 130.75767 | 3181 ft | 211 kts | 109° |
| 2026-04-28 16:52 | -12.37812 | 130.77183 | 2972 ft | 209 kts | 110° |
| 2026-04-28 16:52 | -12.38265 | 130.78528 | 2914 ft | 194 kts | 110° |
| 2026-04-28 16:53 | -12.38694 | 130.79811 | 2289 ft | 193 kts | 110° |
| 2026-04-28 16:53 | -12.39140 | 130.81149 | 1442 ft | 206 kts | 109° |
| 2026-04-28 16:53 | -12.39582 | 130.82499 | 1030 ft | 198 kts | 109° |
| 2026-04-28 16:53 | -12.39987 | 130.83838 | 553 ft | 193 kts | 109° |
| 2026-04-28 16:54 | -12.40397 | 130.85056 | 392 ft | 168 kts | 110° |
| 2026-04-28 16:54 | -12.40762 | 130.86124 | 245 ft | 151 kts | 114° |
| 2026-04-28 16:54 | -12.41106 | 130.87095 | 220 ft | 134 kts | 112° |
| 2026-04-28 16:54 | -12.41315 | 130.87685 | 371 ft | 139 kts | 112° |
| 2026-04-28 16:55 | -12.41877 | 130.89177 | 1015 ft | 195 kts | 112° |
| 2026-04-28 16:55 | -12.42408 | 130.90604 | 1617 ft | 239 kts | 111° |
| 2026-04-28 16:55 | -12.43051 | 130.92370 | 2288 ft | 289 kts | 110° |
| 2026-04-28 16:55 | -12.43891 | 130.94397 | 2968 ft | 329 kts | 119° |
| 2026-04-28 16:56 | -12.45444 | 130.96288 | 3434 ft | 363 kts | 140° |
| 2026-04-28 16:56 | -12.47586 | 130.97448 | 3578 ft | 348 kts | 162° |
| 2026-04-28 16:56 | -12.50010 | 130.97617 | 3593 ft | 356 kts | 186° |
| 2026-04-28 16:56 | -12.52357 | 130.96747 | 3592 ft | 365 kts | 210° |
| 2026-04-28 16:57 | -12.54219 | 130.94969 | 3597 ft | 372 kts | 232° |
| 2026-04-28 16:57 | -12.55648 | 130.92757 | 3592 ft | 375 kts | 239° |
| 2026-04-28 16:57 | -12.56614 | 130.90312 | 3588 ft | 378 kts | 256° |
| 2026-04-28 16:57 | -12.56761 | 130.87630 | 3595 ft | 380 kts | 278° |
| 2026-04-28 16:58 | -12.55903 | 130.85037 | 3611 ft | 392 kts | 300° |
| 2026-04-28 16:58 | -12.54199 | 130.82917 | 3608 ft | 383 kts | 319° |
| 2026-04-28 16:58 | -12.52068 | 130.81331 | 3592 ft | 375 kts | 329° |
| 2026-04-28 16:58 | -12.49817 | 130.80013 | 3586 ft | 370 kts | 332° |
| 2026-04-28 16:59 | -12.47561 | 130.78771 | 3584 ft | 367 kts | 332° |
| 2026-04-28 16:59 | -12.45334 | 130.77503 | 3583 ft | 365 kts | 331° |
| 2026-04-28 16:59 | -12.43172 | 130.76151 | 3580 ft | 364 kts | 326° |
| 2026-04-28 16:59 | -12.41260 | 130.74512 | 3582 ft | 363 kts | 317° |
| 2026-04-28 17:00 | -12.39524 | 130.72738 | 3564 ft | 339 kts | 314° |
| 2026-04-28 17:00 | -12.38027 | 130.71059 | 3541 ft | 300 kts | 311° |
| 2026-04-28 17:00 | -12.36731 | 130.69529 | 3528 ft | 270 kts | 311° |
| 2026-04-28 17:00 | -12.35571 | 130.68130 | 3519 ft | 247 kts | 310° |
| 2026-04-28 17:01 | -12.34488 | 130.66867 | 3510 ft | 226 kts | 313° |
| 2026-04-28 17:01 | -12.33437 | 130.65728 | 3482 ft | 216 kts | 312° |
| 2026-04-28 17:01 | -12.32620 | 130.64433 | 3472 ft | 229 kts | 298° |
| 2026-04-28 17:01 | -12.31833 | 130.62890 | 3471 ft | 264 kts | 295° |
| 2026-04-28 17:02 | -12.31100 | 130.61112 | 3474 ft | 276 kts | 290° |
| 2026-04-28 17:02 | -12.30651 | 130.59865 | 3473 ft | 278 kts | 289° |
| 2026-04-28 17:02 | -12.29786 | 130.57397 | 3470 ft | 278 kts | 289° |
| 2026-04-28 17:02 | -12.29135 | 130.55537 | 3470 ft | 278 kts | 289° |
| 2026-04-28 17:03 | -12.27403 | 130.52013 | 3471 ft | 280 kts | 309° |
| 2026-04-28 17:03 | -12.26168 | 130.50473 | 3471 ft | 280 kts | 311° |
| 2026-04-28 17:03 | -12.24930 | 130.48974 | 3475 ft | 280 kts | 311° |
| 2026-04-28 17:04 | -12.21806 | 130.46749 | 3475 ft | 276 kts | 349° |
| 2026-04-28 17:04 | -12.19921 | 130.46740 | 3473 ft | 270 kts | 17° |
| 2026-04-28 17:05 | -12.17629 | 130.49339 | 3470 ft | 256 kts | 85° |
| 2026-04-28 17:05 | -12.17973 | 130.51084 | 3473 ft | 254 kts | 120° |
| 2026-04-28 17:05 | -12.19138 | 130.52430 | 3479 ft | 257 kts | 144° |
| 2026-04-28 17:06 | -12.22364 | 130.53985 | 3475 ft | 259 kts | 154° |
| 2026-04-28 17:06 | -12.23937 | 130.54867 | 3474 ft | 258 kts | 142° |
| 2026-04-28 17:06 | -12.26188 | 130.57650 | 3319 ft | 254 kts | 121° |
| 2026-04-28 17:07 | -12.27119 | 130.59196 | 3196 ft | 256 kts | 121° |
| 2026-04-28 17:07 | -12.28034 | 130.60749 | 3076 ft | 255 kts | 121° |
| 2026-04-28 17:07 | -12.28946 | 130.62310 | 2959 ft | 255 kts | 121° |
| 2026-04-28 17:07 | -12.29855 | 130.63870 | 2833 ft | 255 kts | 121° |
| 2026-04-28 17:08 | -12.30744 | 130.65398 | 2708 ft | 244 kts | 121° |
| 2026-04-28 17:08 | -12.31584 | 130.66842 | 2597 ft | 235 kts | 121° |
| 2026-04-28 17:08 | -12.32401 | 130.68247 | 2455 ft | 225 kts | 121° |
| 2026-04-28 17:08 | -12.33185 | 130.69596 | 2356 ft | 216 kts | 121° |
| 2026-04-28 17:09 | -12.33924 | 130.70871 | 2264 ft | 198 kts | 121° |
| 2026-04-28 17:09 | -12.34588 | 130.72018 | 2114 ft | 177 kts | 121° |
| 2026-04-28 17:09 | -12.35185 | 130.73047 | 2000 ft | 160 kts | 122° |
| 2026-04-28 17:09 | -12.35730 | 130.73987 | 1956 ft | 151 kts | 122° |
| 2026-04-28 17:10 | -12.36266 | 130.74911 | 1961 ft | 150 kts | 122° |
| 2026-04-28 17:10 | -12.36779 | 130.75847 | 2025 ft | 151 kts | 121° |
| 2026-04-28 17:10 | -12.37307 | 130.76749 | 1970 ft | 150 kts | 122° |
| 2026-04-28 17:10 | -12.37841 | 130.77666 | 1916 ft | 151 kts | 120° |
| 2026-04-28 17:11 | -12.38252 | 130.78645 | 1717 ft | 149 kts | 110° |
| 2026-04-28 17:11 | -12.38599 | 130.79648 | 1505 ft | 150 kts | 110° |
| 2026-04-28 17:11 | -12.38949 | 130.80652 | 1282 ft | 150 kts | 110° |
| 2026-04-28 17:11 | -12.39305 | 130.81668 | 902 ft | 159 kts | 110° |
| 2026-04-28 17:12 | -12.39651 | 130.82735 | 642 ft | 151 kts | 110° |
| 2026-04-28 17:12 | -12.39964 | 130.83704 | 461 ft | 135 kts | 112° |
| 2026-04-28 17:12 | -12.40267 | 130.84581 | 395 ft | 128 kts | 114° |
| 2026-04-28 17:12 | -12.40595 | 130.85449 | 353 ft | 138 kts | 114° |
| 2026-04-28 17:13 | -12.40899 | 130.86363 | 223 ft | 135 kts | 107° |
| 2026-04-28 17:13 | -12.41164 | 130.87205 | 107 ft | 77 kts | 147° |
| 2026-04-28 17:13 | -12.41273 | 130.87474 | 107 ft | 30 kts | 102° |
| 2026-04-28 17:13 | -12.41324 | 130.87682 | 105 ft | 30 kts | 107° |
| 2026-04-28 17:14 | -12.41382 | 130.87889 | 106 ft | 31 kts | 106° |
| 2026-04-28 17:14 | -12.41327 | 130.88030 | 106 ft | 18 kts | 9° |
| 2026-04-28 17:14 | -12.41204 | 130.88065 | 105 ft | 18 kts | 18° |
| 2026-04-28 17:14 | -12.41107 | 130.88098 | 104 ft | 0 kts | 10° |
| 2026-04-28 17:15 | -12.41091 | 130.88095 | 104 ft | 6 kts | 345° |
| 2026-04-28 17:15 | -12.41053 | 130.88053 | 105 ft | 10 kts | 297° |
| 2026-04-28 17:15 | -12.41024 | 130.87971 | 106 ft | 15 kts | 288° |
| 2026-04-28 17:15 | -12.40986 | 130.87856 | 103 ft | 19 kts | 288° |
| 2026-04-28 17:16 | -12.40963 | 130.87780 | 103 ft | 0 kts | 308° |
| 2026-04-28 17:16 | -12.40953 | 130.87780 | 103 ft | 3 kts | 353° |
| 2026-04-28 17:16 | -12.40912 | 130.87783 | 101 ft | 8 kts | 16° |
| 2026-04-28 17:16 | -12.40898 | 130.87789 | 101 ft | 0 kts | 19° |